Time;durP1;ratioP1;P1;durP2;ratioP2;P2;SDS_P1;SDS_P2;PMS_P1;PMS_P2;Temp;Humidity;BMP_temperature;BMP_pressure;BME280_temperature;BME280_humidity;BME280_pressure;Samples;Min_cycle;Max_cycle;Signal;HPM_P1;HPM_P2
2023/03/26 00:01:14;;;;;;;2.38;0.90;;;8.20;99.90;;;;;;5051182;28;20043;-71
2023/03/26 00:03:41;;;;;;;2.75;0.70;;;8.20;99.90;;;;;;5055289;28;20111;-72
2023/03/26 00:06:09;;;;;;;3.53;0.60;;;8.20;99.90;;;;;;5073965;28;20319;-72
2023/03/26 00:08:37;;;;;;;3.50;1.10;;;8.20;99.90;;;;;;5079280;28;20115;-72
2023/03/26 00:11:05;;;;;;;2.70;0.60;;;8.20;99.90;;;;;;5069193;28;20039;-72
2023/03/26 00:13:32;;;;;;;3.03;0.63;;;8.20;99.90;;;;;;5072587;28;20460;-72
2023/03/26 00:15:58;;;;;;;5.93;0.70;;;8.20;99.90;;;;;;5055228;28;20040;-72
2023/03/26 00:18:29;;;;;;;1.67;0.50;;;8.10;99.90;;;;;;5072375;28;20043;-72
2023/03/26 00:20:56;;;;;;;2.38;0.57;;;8.10;99.90;;;;;;5070993;28;20058;-72
2023/03/26 00:23:21;;;;;;;1.65;0.70;;;8.10;99.90;;;;;;5072117;28;20047;-72
2023/03/26 00:25:49;;;;;;;1.48;0.55;;;8.10;99.90;;;;;;5077090;28;20052;-72
2023/03/26 00:28:16;;;;;;;2.72;0.52;;;8.10;99.90;;;;;;5069849;28;20052;-72
2023/03/26 00:30:42;;;;;;;1.77;0.60;;;8.10;99.90;;;;;;5079825;28;20054;-72
2023/03/26 00:33:10;;;;;;;2.97;0.65;;;8.10;99.90;;;;;;5071881;28;20039;-72
2023/03/26 00:35:37;;;;;;;1.63;0.25;;;8.10;99.90;;;;;;5093072;28;20051;-72
2023/03/26 00:38:03;;;;;;;3.90;0.70;;;8.10;99.90;;;;;;5077125;28;20032;-72
2023/03/26 00:40:28;;;;;;;2.95;0.52;;;8.00;99.90;;;;;;5075376;28;20047;-72
2023/03/26 00:42:54;;;;;;;2.25;0.55;;;8.00;99.90;;;;;;5076273;28;20056;-72
2023/03/26 00:45:21;;;;;;;1.13;0.32;;;8.00;99.90;;;;;;5108942;27;20499;-72
2023/03/26 00:47:47;;;;;;;2.80;0.85;;;8.00;99.90;;;;;;5072519;28;20439;-71
2023/03/26 00:50:15;;;;;;;2.67;0.70;;;8.00;99.90;;;;;;5059652;28;20040;-72
2023/03/26 00:52:45;;;;;;;3.17;0.80;;;8.10;99.90;;;;;;5072685;28;20057;-72
2023/03/26 00:55:11;;;;;;;1.67;1.02;;;8.00;99.90;;;;;;5054154;28;20359;-72
2023/03/26 00:57:39;;;;;;;4.07;1.08;;;8.00;99.90;;;;;;5049435;28;20040;-72
2023/03/26 01:00:10;;;;;;;2.67;0.75;;;8.00;99.90;;;;;;5059346;28;20486;-72
2023/03/26 01:02:35;;;;;;;2.53;0.63;;;8.00;99.90;;;;;;5072753;28;20067;-72
2023/03/26 01:05:44;;;;;;;5.30;0.55;;;8.00;99.90;;;;;;5059778;28;20048;-71
2023/03/26 01:08:32;;;;;;;2.75;0.73;;;8.00;99.90;;;;;;5052169;28;20040;-72
2023/03/26 01:11:19;;;;;;;3.75;0.52;;;7.90;99.90;;;;;;5076677;28;20542;-72
2023/03/26 01:14:07;;;;;;;5.05;0.65;;;7.90;99.90;;;;;;5058156;28;20051;-71
2023/03/26 01:16:37;;;;;;;2.63;0.57;;;7.90;99.90;;;;;;5077754;28;20119;-72
2023/03/26 01:19:28;;;;;;;1.88;0.93;;;7.90;99.90;;;;;;5077083;28;20585;-72
2023/03/26 01:21:54;;;;;;;1.85;0.65;;;7.90;99.90;;;;;;5045499;28;20649;-72
2023/03/26 01:24:20;;;;;;;4.10;0.68;;;7.80;99.90;;;;;;5072254;28;20032;-71
2023/03/26 01:27:09;;;;;;;3.90;0.75;;;7.80;99.90;;;;;;5102769;27;20086;-72
2023/03/26 01:30:01;;;;;;;2.35;0.60;;;7.80;99.90;;;;;;5086232;28;20038;-72
2023/03/26 01:33:00;;;;;;;5.53;0.55;;;7.80;99.90;;;;;;5047357;28;20044;-72
2023/03/26 01:36:10;;;;;;;6.38;1.00;;;7.80;99.90;;;;;;5090493;28;20051;-71
2023/03/26 01:38:47;;;;;;;5.18;0.73;;;7.80;99.90;;;;;;5065901;28;20050;-72
2023/03/26 01:41:23;;;;;;;4.97;0.60;;;7.70;99.90;;;;;;5073260;28;20425;-72
2023/03/26 01:44:09;;;;;;;1.38;0.40;;;7.70;99.90;;;;;;5068087;28;20494;-72
2023/03/26 01:46:35;;;;;;;3.00;0.43;;;7.60;99.90;;;;;;5109529;27;20039;-71
2023/03/26 01:49:05;;;;;;;4.22;0.95;;;7.60;99.90;;;;;;5076379;28;20036;-71
2023/03/26 01:51:33;;;;;;;4.43;0.93;;;7.50;99.90;;;;;;5068561;28;20115;-71
2023/03/26 01:54:03;;;;;;;1.25;0.50;;;7.50;99.90;;;;;;5089621;28;20055;-72
2023/03/26 01:56:52;;;;;;;1.13;0.52;;;7.50;99.90;;;;;;5103482;28;20028;-72
2023/03/26 01:59:20;;;;;;;1.48;0.60;;;7.40;99.90;;;;;;5089086;28;20128;-71
2023/03/26 02:02:09;;;;;;;3.65;0.65;;;7.40;99.90;;;;;;5048935;28;20036;-72
2023/03/26 02:04:43;;;;;;;3.40;0.68;;;7.40;99.90;;;;;;5069837;28;20036;-72
2023/03/26 02:07:09;;;;;;;2.03;0.57;;;7.40;99.90;;;;;;5051162;28;20040;-72
2023/03/26 02:09:48;;;;;;;3.55;0.68;;;7.30;99.90;;;;;;5072587;28;20394;-71
2023/03/26 02:12:15;;;;;;;2.25;0.40;;;7.30;99.90;;;;;;5083952;28;20060;-71
2023/03/26 02:14:41;;;;;;;2.17;0.60;;;7.30;99.90;;;;;;5073019;28;20067;-72
2023/03/26 02:17:09;;;;;;;2.58;1.08;;;7.20;99.90;;;;;;5076712;28;20052;-71
2023/03/26 02:19:36;;;;;;;3.17;0.40;;;7.20;99.90;;;;;;5073571;28;20074;-72
2023/03/26 02:22:02;;;;;;;2.20;0.52;;;7.20;99.90;;;;;;5071494;28;20033;-71
2023/03/26 02:24:27;;;;;;;2.90;0.80;;;7.20;99.90;;;;;;5072360;28;20119;-72
2023/03/26 02:26:53;;;;;;;2.08;0.70;;;7.20;99.90;;;;;;5073534;28;21764;-71
2023/03/26 02:29:20;;;;;;;3.72;0.73;;;7.20;99.90;;;;;;5072603;28;20032;-71
2023/03/26 02:31:47;;;;;;;1.27;0.57;;;7.20;99.90;;;;;;5076236;28;20044;-71
2023/03/26 02:34:13;;;;;;;1.58;0.60;;;7.30;99.90;;;;;;5109329;27;20043;-72
2023/03/26 02:36:41;;;;;;;1.23;0.50;;;7.30;99.90;;;;;;5076849;28;20047;-72
2023/03/26 02:39:10;;;;;;;2.15;0.40;;;7.30;99.90;;;;;;5077518;28;20061;-72
2023/03/26 02:41:37;;;;;;;3.50;0.68;;;7.30;99.90;;;;;;5073600;28;20523;-72
2023/03/26 02:44:04;;;;;;;2.67;0.50;;;7.30;99.90;;;;;;5109380;27;20036;-72
2023/03/26 02:46:33;;;;;;;2.47;0.57;;;7.40;99.90;;;;;;5073181;28;20038;-72
2023/03/26 02:48:59;;;;;;;1.38;0.45;;;7.40;99.90;;;;;;5057327;28;20041;-72
2023/03/26 02:51:26;;;;;;;2.15;0.57;;;7.40;99.90;;;;;;5076752;28;20036;-72
2023/03/26 02:53:52;;;;;;;1.30;0.50;;;7.50;99.90;;;;;;5090849;28;20041;-72
2023/03/26 02:56:18;;;;;;;2.40;0.60;;;7.50;99.90;;;;;;5072605;28;20049;-72
2023/03/26 02:58:45;;;;;;;2.42;0.50;;;7.50;99.90;;;;;;5106745;27;20032;-72
2023/03/26 03:01:12;;;;;;;0.88;0.47;;;7.50;99.90;;;;;;5075551;28;20028;-72
2023/03/26 03:03:37;;;;;;;4.70;0.45;;;7.60;99.90;;;;;;5076578;28;20042;-72
2023/03/26 03:06:03;;;;;;;3.45;0.60;;;7.60;99.90;;;;;;5069987;28;20028;-73
2023/03/26 03:08:29;;;;;;;0.88;0.40;;;7.60;99.90;;;;;;5075051;28;20097;-72
2023/03/26 03:10:59;;;;;;;3.78;0.88;;;7.60;99.90;;;;;;5075284;28;20039;-72
2023/03/26 03:13:26;;;;;;;2.53;0.55;;;7.60;99.90;;;;;;5072573;28;20060;-71
2023/03/26 03:15:52;;;;;;;1.42;0.60;;;7.60;99.90;;;;;;5080438;28;20044;-71
2023/03/26 03:18:18;;;;;;;3.33;0.70;;;7.60;99.90;;;;;;5058730;28;20063;-72
2023/03/26 03:20:43;;;;;;;2.85;0.65;;;7.60;99.90;;;;;;5076964;28;20032;-72
2023/03/26 03:23:09;;;;;;;3.72;0.60;;;7.50;99.90;;;;;;5104644;27;20116;-71
2023/03/26 03:25:37;;;;;;;3.08;0.50;;;7.50;99.90;;;;;;5056282;28;20036;-72
2023/03/26 03:28:03;;;;;;;2.90;0.75;;;7.50;99.90;;;;;;5053871;28;20044;-72
2023/03/26 03:30:29;;;;;;;1.55;0.55;;;7.50;99.90;;;;;;5074911;28;21752;-72
2023/03/26 03:32:57;;;;;;;1.42;0.40;;;7.40;99.90;;;;;;5070380;28;20043;-72
2023/03/26 03:35:23;;;;;;;3.97;0.52;;;7.40;99.90;;;;;;5074640;28;20040;-72
2023/03/26 03:37:49;;;;;;;1.08;0.32;;;7.30;99.90;;;;;;5073571;28;20037;-72
2023/03/26 03:40:15;;;;;;;2.03;0.35;;;7.30;99.90;;;;;;5072057;28;20451;-72
2023/03/26 03:42:40;;;;;;;1.85;0.40;;;7.20;99.90;;;;;;5074625;28;20389;-72
2023/03/26 03:45:06;;;;;;;1.55;0.70;;;7.20;99.90;;;;;;5056165;28;20382;-72
2023/03/26 03:47:32;;;;;;;3.00;0.40;;;7.10;99.90;;;;;;5076332;28;20077;-72
2023/03/26 03:49:59;;;;;;;0.95;0.65;;;7.10;99.90;;;;;;5071835;28;20037;-72
2023/03/26 03:52:26;;;;;;;1.38;0.70;;;7.10;99.90;;;;;;5073056;28;20040;-71
2023/03/26 03:54:51;;;;;;;2.33;0.50;;;7.00;99.90;;;;;;5056748;28;20039;-72
2023/03/26 03:57:17;;;;;;;2.65;0.70;;;7.10;99.90;;;;;;5063839;28;20040;-72
2023/03/26 03:59:43;;;;;;;2.72;0.95;;;7.00;99.90;;;;;;5106597;27;20024;-72
2023/03/26 04:02:09;;;;;;;2.05;0.50;;;7.10;99.90;;;;;;5072231;28;20081;-72
2023/03/26 04:04:36;;;;;;;3.17;0.43;;;7.00;99.90;;;;;;5068737;28;20270;-72
2023/03/26 04:07:03;;;;;;;1.13;0.50;;;7.00;99.90;;;;;;5077733;28;20032;-72
2023/03/26 04:09:28;;;;;;;1.42;0.50;;;6.90;99.90;;;;;;5074667;28;20059;-72
2023/03/26 04:11:54;;;;;;;0.60;0.30;;;6.90;99.90;;;;;;5110971;27;20040;-72
2023/03/26 04:14:19;;;;;;;1.13;0.47;;;6.80;99.90;;;;;;5075533;28;20043;-72
2023/03/26 04:16:47;;;;;;;2.15;0.40;;;6.70;99.90;;;;;;5056798;28;20051;-72
2023/03/26 04:19:13;;;;;;;0.65;0.38;;;6.70;99.90;;;;;;5057988;28;20600;-71
2023/03/26 04:21:41;;;;;;;2.00;0.50;;;6.60;99.90;;;;;;5077363;28;20040;-72
2023/03/26 04:24:07;;;;;;;1.20;0.93;;;6.60;99.90;;;;;;5076217;28;20040;-72
2023/03/26 04:26:34;;;;;;;3.33;0.73;;;6.60;99.90;;;;;;5082594;28;20035;-72
2023/03/26 04:29:03;;;;;;;0.85;0.40;;;6.60;99.90;;;;;;5078269;28;20497;-72
2023/03/26 04:31:29;;;;;;;1.23;0.52;;;6.60;99.90;;;;;;5070256;28;20044;-72
2023/03/26 04:34:35;;;;;;;1.15;0.47;;;6.50;99.90;;;;;;5056982;28;20458;-72
2023/03/26 04:37:03;;;;;;;0.60;0.30;;;6.60;99.90;;;;;;5050565;28;20044;-72
2023/03/26 04:39:33;;;;;;;1.23;0.45;;;6.50;99.90;;;;;;5056256;28;20032;-72
2023/03/26 04:41:59;;;;;;;1.15;0.32;;;6.50;99.90;;;;;;5085529;27;20119;-72
2023/03/26 04:44:25;;;;;;;2.38;0.40;;;6.50;99.90;;;;;;5078343;28;20509;-71
2023/03/26 04:46:54;;;;;;;2.97;0.70;;;6.60;99.90;;;;;;5069094;28;20029;-72
2023/03/26 04:49:19;;;;;;;4.55;0.95;;;6.60;99.90;;;;;;5075477;28;20473;-72
2023/03/26 04:51:46;;;;;;;0.88;0.30;;;6.70;99.90;;;;;;5066661;28;20122;-72
2023/03/26 04:54:15;;;;;;;1.27;0.32;;;6.70;99.90;;;;;;5088056;28;20157;-72
2023/03/26 04:56:55;;;;;;;1.88;0.60;;;6.70;99.90;;;;;;5069115;28;20461;-72
2023/03/26 04:59:35;;;;;;;7.10;0.60;;;6.80;99.90;;;;;;5071311;28;20058;-72
2023/03/26 05:02:03;;;;;;;0.73;0.32;;;6.80;99.90;;;;;;5068175;28;20039;-72
2023/03/26 05:04:30;;;;;;;1.77;0.30;;;6.70;99.90;;;;;;5072023;28;20042;-72
2023/03/26 05:06:59;;;;;;;0.60;0.20;;;6.80;99.90;;;;;;5073196;28;20035;-72
2023/03/26 05:09:26;;;;;;;1.70;0.40;;;6.80;99.90;;;;;;5068972;28;20043;-72
2023/03/26 05:11:52;;;;;;;0.43;0.20;;;6.80;99.90;;;;;;5075376;28;20079;-72
2023/03/26 05:14:18;;;;;;;3.00;0.47;;;6.90;99.90;;;;;;5075364;28;20047;-71
2023/03/26 05:16:46;;;;;;;0.50;0.30;;;6.90;99.90;;;;;;5072132;28;20039;-72
2023/03/26 05:19:11;;;;;;;1.38;0.50;;;6.90;99.90;;;;;;5075811;28;20524;-72
2023/03/26 05:21:37;;;;;;;1.48;0.50;;;6.90;99.90;;;;;;5089823;28;20036;-72
2023/03/26 05:24:05;;;;;;;0.65;0.35;;;6.90;99.90;;;;;;5052970;28;20097;-72
2023/03/26 05:26:31;;;;;;;1.42;0.40;;;6.90;99.90;;;;;;5100545;27;20087;-72
2023/03/26 05:28:57;;;;;;;2.75;0.88;;;6.90;99.90;;;;;;5074410;28;20036;-72
2023/03/26 05:31:22;;;;;;;2.85;0.85;;;7.00;99.90;;;;;;5076549;28;20502;-72
2023/03/26 05:33:48;;;;;;;2.03;0.80;;;7.00;99.90;;;;;;5072908;28;20071;-72
2023/03/26 05:36:16;;;;;;;1.65;0.60;;;7.00;99.90;;;;;;5054526;28;20128;-71
2023/03/26 05:38:46;;;;;;;2.15;0.50;;;7.10;99.90;;;;;;5055127;28;20076;-72
2023/03/26 05:41:12;;;;;;;1.35;0.30;;;7.10;99.90;;;;;;5090467;28;20509;-72
2023/03/26 05:43:38;;;;;;;2.70;0.40;;;7.10;99.90;;;;;;5074769;28;20389;-72
2023/03/26 05:46:04;;;;;;;2.75;0.40;;;7.10;99.90;;;;;;5073238;28;20036;-71
2023/03/26 05:48:30;;;;;;;2.42;0.75;;;7.10;99.90;;;;;;5102246;27;20075;-71
2023/03/26 05:50:56;;;;;;;1.63;0.70;;;7.10;99.90;;;;;;5065197;28;20040;-72
2023/03/26 05:53:25;;;;;;;4.65;0.88;;;7.10;99.90;;;;;;5068967;28;20089;-72
2023/03/26 05:55:56;;;;;;;1.42;0.65;;;7.10;99.90;;;;;;5069580;28;20089;-72
2023/03/26 05:58:27;;;;;;;1.55;0.68;;;7.10;99.90;;;;;;5088812;28;20032;-72
2023/03/26 06:01:04;;;;;;;1.38;0.50;;;7.20;99.90;;;;;;5076757;28;20035;-72
2023/03/26 06:03:36;;;;;;;3.00;0.70;;;7.20;99.90;;;;;;5105769;28;20118;-71
2023/03/26 06:06:02;;;;;;;1.45;0.65;;;7.20;99.90;;;;;;5052889;28;20040;-72
2023/03/26 06:08:29;;;;;;;3.70;0.40;;;7.30;99.90;;;;;;5068079;28;20440;-72
2023/03/26 06:10:59;;;;;;;1.52;0.50;;;7.20;99.90;;;;;;5054080;28;20036;-72
2023/03/26 06:13:25;;;;;;;2.83;0.80;;;7.30;99.90;;;;;;5105210;28;20040;-72
2023/03/26 06:15:51;;;;;;;3.33;1.48;;;7.20;99.90;;;;;;5073805;28;20101;-72
2023/03/26 06:18:18;;;;;;;3.33;1.05;;;7.20;99.90;;;;;;5082900;28;20069;-72
2023/03/26 06:20:44;;;;;;;3.13;0.70;;;7.30;99.90;;;;;;5068955;28;20090;-71
2023/03/26 06:23:09;;;;;;;1.80;0.80;;;7.20;99.90;;;;;;5056931;28;20028;-72
2023/03/26 06:25:36;;;;;;;2.58;0.80;;;7.30;99.90;;;;;;5069102;28;20124;-72
2023/03/26 06:28:01;;;;;;;4.90;0.90;;;7.30;99.90;;;;;;5067934;28;20494;-72
2023/03/26 06:30:27;;;;;;;5.78;1.00;;;7.40;99.90;;;;;;5100789;28;20086;-72
2023/03/26 06:32:53;;;;;;;2.92;0.95;;;7.40;99.90;;;;;;5070154;28;20505;-72
2023/03/26 06:35:18;;;;;;;3.70;1.00;;;7.40;99.90;;;;;;5067917;28;20039;-72
2023/03/26 06:37:44;;;;;;;2.67;0.90;;;7.40;99.90;;;;;;5072909;28;20032;-71
2023/03/26 06:40:10;;;;;;;3.85;0.77;;;7.50;99.90;;;;;;5074913;28;20044;-71
2023/03/26 06:42:36;;;;;;;2.47;0.65;;;7.50;99.90;;;;;;5077895;28;20052;-72
2023/03/26 06:45:02;;;;;;;2.20;1.00;;;7.50;99.90;;;;;;5055994;28;20180;-72
2023/03/26 06:47:27;;;;;;;3.70;0.75;;;7.50;99.90;;;;;;5076332;28;20122;-72
2023/03/26 06:49:53;;;;;;;3.35;0.63;;;7.50;99.90;;;;;;5070006;28;20093;-72
2023/03/26 06:52:18;;;;;;;2.03;0.73;;;7.50;99.90;;;;;;5067200;28;20041;-72
2023/03/26 06:54:44;;;;;;;3.78;1.30;;;7.50;99.90;;;;;;5061937;28;20101;-73
2023/03/26 06:57:09;;;;;;;3.15;0.80;;;7.50;99.90;;;;;;5073539;28;20032;-72
2023/03/26 06:59:35;;;;;;;3.70;0.90;;;7.40;99.90;;;;;;5051480;28;20478;-72
2023/03/26 07:02:01;;;;;;;6.40;1.88;;;7.40;99.90;;;;;;5073936;28;20060;-72
2023/03/26 07:04:26;;;;;;;4.72;1.40;;;7.40;99.90;;;;;;5071323;28;20299;-72
2023/03/26 07:06:52;;;;;;;3.75;0.47;;;7.40;99.90;;;;;;5065930;28;20035;-72
2023/03/26 07:09:18;;;;;;;2.10;0.80;;;7.40;99.90;;;;;;5086189;28;20040;-71
2023/03/26 07:11:44;;;;;;;2.75;0.70;;;7.30;99.90;;;;;;5072906;28;20040;-72
2023/03/26 07:14:09;;;;;;;1.02;0.65;;;7.30;99.90;;;;;;5048471;28;20062;-72
2023/03/26 07:16:35;;;;;;;3.70;0.60;;;7.30;99.90;;;;;;5069262;28;20101;-72
2023/03/26 07:19:00;;;;;;;3.97;1.27;;;7.30;99.90;;;;;;5064124;28;20047;-72
2023/03/26 07:21:27;;;;;;;9.00;1.20;;;7.30;99.90;;;;;;5064635;28;20043;-72
2023/03/26 07:23:53;;;;;;;5.60;1.60;;;7.30;99.90;;;;;;5071801;28;20048;-72
2023/03/26 07:26:59;;;;;;;6.20;0.93;;;7.30;99.90;;;;;;5071235;28;20515;-72
2023/03/26 07:29:44;;;;;;;2.50;0.50;;;7.30;99.90;;;;;;5061251;28;20085;-72
2023/03/26 07:32:33;;;;;;;5.95;1.10;;;7.30;99.90;;;;;;5077108;28;20045;-72
2023/03/26 07:35:20;;;;;;;6.95;0.90;;;7.40;99.90;;;;;;5070375;28;20032;-72
2023/03/26 07:38:20;;;;;;;5.43;0.80;;;7.40;99.90;;;;;;5080627;28;20035;-72
2023/03/26 07:41:04;;;;;;;1.20;0.40;;;7.50;99.90;;;;;;5074201;28;20040;-72
2023/03/26 07:43:32;;;;;;;4.82;0.50;;;7.50;99.90;;;;;;5100759;27;20044;-72
2023/03/26 07:45:58;;;;;;;3.20;0.40;;;7.50;99.90;;;;;;5087134;28;20444;-72
2023/03/26 07:48:26;;;;;;;4.18;0.70;;;7.50;99.90;;;;;;5105656;27;20089;-72
2023/03/26 07:50:53;;;;;;;1.98;0.60;;;7.50;99.90;;;;;;5061366;28;20093;-72
2023/03/26 07:53:19;;;;;;;4.05;1.20;;;7.50;99.90;;;;;;5096464;27;20041;-72
2023/03/26 07:56:09;;;;;;;5.68;0.65;;;7.50;99.90;;;;;;5056897;28;20521;-72
2023/03/26 07:58:46;;;;;;;3.10;0.57;;;7.50;99.90;;;;;;5100055;27;20519;-72
2023/03/26 08:01:19;;;;;;;5.00;0.70;;;7.50;99.90;;;;;;5101504;27;20051;-72
2023/03/26 08:04:00;;;;;;;2.97;1.10;;;7.50;99.90;;;;;;5074019;28;22476;-72
2023/03/26 08:06:36;;;;;;;2.58;0.63;;;7.50;99.90;;;;;;5101946;27;20119;-72
2023/03/26 08:09:25;;;;;;;4.57;0.85;;;7.60;99.90;;;;;;5092252;28;20098;-76
2023/03/26 08:11:59;;;;;;;4.95;0.95;;;7.60;99.90;;;;;;5077632;28;20099;-72
2023/03/26 08:14:43;;;;;;;3.25;0.60;;;7.60;99.90;;;;;;5104960;27;20044;-72
2023/03/26 08:17:12;;;;;;;7.55;0.55;;;7.60;99.90;;;;;;5068706;28;20048;-72
2023/03/26 08:20:06;;;;;;;3.20;0.90;;;7.70;99.90;;;;;;5045498;28;20040;-72
2023/03/26 08:22:41;;;;;;;1.83;0.60;;;7.70;99.90;;;;;;5065681;28;20039;-72
2023/03/26 08:25:42;;;;;;;4.32;0.77;;;7.70;99.90;;;;;;5049590;28;20033;-72
2023/03/26 08:28:22;;;;;;;3.83;0.57;;;7.70;99.90;;;;;;5043087;28;20048;-72
2023/03/26 08:30:49;;;;;;;4.25;0.70;;;7.60;99.90;;;;;;5060974;28;20070;-72
2023/03/26 08:33:19;;;;;;;2.88;0.77;;;7.60;99.90;;;;;;5065660;28;20058;-72
2023/03/26 08:35:45;;;;;;;1.77;0.70;;;7.70;99.90;;;;;;5060633;28;20044;-72
2023/03/26 08:38:14;;;;;;;2.22;0.40;;;7.70;99.90;;;;;;5069802;28;20051;-72
2023/03/26 08:41:11;;;;;;;5.85;0.95;;;7.70;99.90;;;;;;5083728;28;20039;-72
2023/03/26 08:44:17;;;;;;;3.08;0.52;;;7.70;99.90;;;;;;5055613;28;20040;-72
2023/03/26 08:46:45;;;;;;;3.88;0.75;;;7.70;99.90;;;;;;5075796;28;20024;-72
2023/03/26 08:49:34;;;;;;;10.15;0.98;;;7.70;99.90;;;;;;5070783;28;20036;-72
2023/03/26 08:52:27;;;;;;;8.38;1.10;;;7.80;99.90;;;;;;5057498;28;20036;-72
2023/03/26 08:55:20;;;;;;;9.02;1.88;;;7.70;99.90;;;;;;5071670;28;20402;-72
2023/03/26 08:57:58;;;;;;;5.78;0.77;;;7.70;99.90;;;;;;5076734;28;20047;-72
2023/03/26 09:00:45;;;;;;;1.95;0.52;;;7.70;99.90;;;;;;5073231;28;20520;-72
2023/03/26 09:03:29;;;;;;;2.58;0.88;;;7.70;99.90;;;;;;5078337;28;20028;-72
2023/03/26 09:06:36;;;;;;;3.92;0.90;;;7.70;99.90;;;;;;5069086;28;20064;-72
2023/03/26 09:09:30;;;;;;;7.72;1.52;;;7.70;99.90;;;;;;5086238;28;20182;-72
2023/03/26 09:12:11;;;;;;;6.95;0.90;;;7.80;99.90;;;;;;5104091;27;20037;-73
2023/03/26 09:14:48;;;;;;;4.25;0.70;;;7.80;99.90;;;;;;5073537;28;20450;-72
2023/03/26 09:17:37;;;;;;;2.78;0.73;;;7.90;99.90;;;;;;5056624;28;20034;-72
2023/03/26 09:20:05;;;;;;;4.07;0.40;;;7.80;99.90;;;;;;5074691;28;20480;-72
2023/03/26 09:22:47;;;;;;;2.63;0.65;;;7.80;99.90;;;;;;5073647;28;20036;-72
2023/03/26 09:25:26;;;;;;;3.22;0.50;;;7.80;99.90;;;;;;5076781;28;20055;-72
2023/03/26 09:27:58;;;;;;;6.63;1.15;;;7.80;99.90;;;;;;5070032;28;20095;-72
2023/03/26 09:31:08;;;;;;;8.50;0.93;;;7.80;99.90;;;;;;5076647;27;20562;-72
2023/03/26 09:33:43;;;;;;;3.75;0.50;;;7.90;99.90;;;;;;5065206;28;20052;-72
2023/03/26 09:36:37;;;;;;;2.10;0.70;;;7.90;99.90;;;;;;5066163;28;20047;-72
2023/03/26 09:39:09;;;;;;;2.20;0.70;;;7.90;99.90;;;;;;5063888;28;20479;-72
2023/03/26 09:42:07;;;;;;;4.00;0.70;;;8.00;99.90;;;;;;5076241;28;20028;-72
2023/03/26 09:44:51;;;;;;;4.75;1.13;;;7.90;99.90;;;;;;5072746;28;20444;-72
2023/03/26 09:47:22;;;;;;;4.85;0.90;;;8.00;99.90;;;;;;5074287;28;20051;-71
2023/03/26 09:50:09;;;;;;;2.33;0.45;;;8.00;99.90;;;;;;5067172;28;21250;-71
2023/03/26 09:53:04;;;;;;;3.25;0.50;;;8.00;99.90;;;;;;5063544;28;20055;-72
2023/03/26 09:55:38;;;;;;;5.43;0.77;;;8.00;99.90;;;;;;5055908;28;20041;-75
2023/03/26 09:58:24;;;;;;;0.57;0.38;;;8.00;99.90;;;;;;5065462;28;20052;-76
2023/03/26 10:01:05;;;;;;;6.07;1.02;;;8.00;99.90;;;;;;5045385;28;20045;-72
2023/03/26 10:03:42;;;;;;;0.73;0.32;;;8.00;99.90;;;;;;5100452;28;20035;-72
2023/03/26 10:06:32;;;;;;;6.47;1.70;;;8.10;99.90;;;;;;5072815;28;20426;-71
2023/03/26 10:09:25;;;;;;;5.40;1.10;;;8.20;99.90;;;;;;5090575;28;20119;-71
2023/03/26 10:12:28;;;;;;;3.72;1.30;;;8.20;99.90;;;;;;5066801;28;20053;-71
2023/03/26 10:15:27;;;;;;;1.98;0.70;;;8.20;99.90;;;;;;5064779;28;20582;-72
2023/03/26 10:18:41;;;;;;;4.00;0.60;;;8.20;99.90;;;;;;5063912;28;20505;-71
2023/03/26 10:21:20;;;;;;;2.30;0.70;;;8.20;99.90;;;;;;5081910;28;20414;-71
2023/03/26 10:24:10;;;;;;;5.22;0.63;;;8.20;99.90;;;;;;5063484;28;20069;-71
2023/03/26 10:26:49;;;;;;;4.65;1.13;;;8.30;99.90;;;;;;5074983;28;20036;-71
2023/03/26 10:29:38;;;;;;;3.58;0.70;;;8.20;99.90;;;;;;5049708;28;20044;-71
2023/03/26 10:32:21;;;;;;;3.92;0.88;;;8.30;99.90;;;;;;5068989;28;20040;-71
2023/03/26 10:35:18;;;;;;;3.08;0.70;;;8.30;99.90;;;;;;5082024;28;20044;-71
2023/03/26 10:38:12;;;;;;;5.30;0.63;;;8.20;99.90;;;;;;5072424;28;20393;-71
2023/03/26 10:41:09;;;;;;;1.50;0.47;;;8.20;99.90;;;;;;5069902;28;20032;-71
2023/03/26 10:43:35;;;;;;;2.28;0.55;;;8.20;99.90;;;;;;5069298;28;20223;-72
2023/03/26 10:46:30;;;;;;;5.00;1.27;;;8.20;99.90;;;;;;5084851;28;20043;-71
2023/03/26 10:49:14;;;;;;;4.18;1.33;;;8.20;99.90;;;;;;5081885;28;20048;-71
2023/03/26 10:51:43;;;;;;;3.55;0.70;;;8.30;99.90;;;;;;5068275;28;20054;-71
2023/03/26 10:54:30;;;;;;;4.25;0.70;;;8.30;99.90;;;;;;5106711;27;20040;-71
2023/03/26 10:56:58;;;;;;;8.40;0.80;;;8.30;99.90;;;;;;5070978;28;20094;-71
2023/03/26 10:59:26;;;;;;;3.67;0.82;;;8.30;99.90;;;;;;5068712;28;20060;-72
2023/03/26 11:02:10;;;;;;;7.38;1.50;;;8.30;99.90;;;;;;5049006;28;21273;-71
2023/03/26 11:04:53;;;;;;;2.10;0.88;;;8.30;99.90;;;;;;5061410;28;20081;-71
2023/03/26 11:07:43;;;;;;;3.92;0.98;;;8.30;99.90;;;;;;5069765;28;20040;-72
2023/03/26 11:10:12;;;;;;;4.65;0.93;;;8.40;99.90;;;;;;5068536;28;20418;-71
2023/03/26 11:13:04;;;;;;;4.95;0.70;;;8.30;99.90;;;;;;5103589;27;20052;-72
2023/03/26 11:15:31;;;;;;;4.15;1.00;;;8.30;99.90;;;;;;5068515;28;20175;-71
2023/03/26 11:18:30;;;;;;;4.20;1.05;;;8.40;99.90;;;;;;5068565;28;20123;-71
2023/03/26 11:21:19;;;;;;;4.40;1.42;;;8.40;99.90;;;;;;5022106;28;20584;-71
2023/03/26 11:24:06;;;;;;;7.95;1.10;;;8.40;99.90;;;;;;5050268;28;20532;-71
2023/03/26 11:26:54;;;;;;;4.13;1.13;;;8.50;99.90;;;;;;5087646;28;20046;-71
2023/03/26 11:29:44;;;;;;;9.50;0.88;;;8.50;99.90;;;;;;5105713;27;20124;-71
2023/03/26 11:32:21;;;;;;;6.15;1.00;;;8.50;99.90;;;;;;5079295;28;20056;-71
2023/03/26 11:35:04;;;;;;;2.25;0.68;;;8.50;99.90;;;;;;5048246;28;20072;-72
2023/03/26 11:37:48;;;;;;;5.93;1.08;;;8.40;99.90;;;;;;5102307;27;20093;-71
2023/03/26 11:40:24;;;;;;;2.30;0.85;;;8.40;99.90;;;;;;5087993;28;20044;-71
2023/03/26 11:42:51;;;;;;;;;;;8.40;99.90;;;;;;5069850;28;20033;-71
2023/03/26 11:45:22;;;;;;;2.60;1.17;;;8.40;99.90;;;;;;5069786;28;19920;-71
2023/03/26 11:48:11;;;;;;;3.15;1.20;;;8.40;99.90;;;;;;5066403;28;20078;-71
2023/03/26 11:50:46;;;;;;;4.00;1.00;;;8.40;99.90;;;;;;5068017;28;20299;-71
2023/03/26 11:53:16;;;;;;;5.00;1.58;;;8.40;99.90;;;;;;5089474;28;20188;-71
2023/03/26 11:56:06;;;;;;;4.25;0.82;;;8.40;99.90;;;;;;5045073;28;20063;-72
2023/03/26 11:59:00;;;;;;;3.28;0.95;;;8.30;99.90;;;;;;5083039;28;20051;-71
2023/03/26 12:01:31;;;;;;;2.92;0.60;;;8.30;99.90;;;;;;5053117;28;20047;-71
2023/03/26 12:04:09;;;;;;;3.35;0.70;;;8.30;99.90;;;;;;5068129;28;20116;-71
2023/03/26 12:06:35;;;;;;;1.65;0.80;;;8.30;99.90;;;;;;5068658;28;20036;-71
2023/03/26 12:09:01;;;;;;;4.13;0.85;;;8.30;99.90;;;;;;5071945;28;20032;-71
2023/03/26 12:11:30;;;;;;;2.60;1.00;;;8.30;99.90;;;;;;5089456;28;20043;-71
2023/03/26 12:14:04;;;;;;;4.25;1.23;;;8.20;99.90;;;;;;5089713;28;20098;-71
2023/03/26 12:16:30;;;;;;;3.08;0.63;;;8.20;99.90;;;;;;5069490;28;20490;-71
2023/03/26 12:19:05;;;;;;;5.78;1.48;;;8.20;99.90;;;;;;5080602;28;20051;-71
2023/03/26 12:21:48;;;;;;;1.42;0.60;;;8.20;99.90;;;;;;5069787;28;20089;-71
2023/03/26 12:24:32;;;;;;;2.65;0.80;;;8.20;99.90;;;;;;5052905;28;20048;-71
2023/03/26 12:27:01;;;;;;;3.03;0.90;;;8.20;99.90;;;;;;5117318;27;20500;-71
2023/03/26 12:29:33;;;;;;;4.28;1.05;;;8.30;99.90;;;;;;5074974;28;20089;-71
2023/03/26 12:32:12;;;;;;;7.32;1.52;;;8.30;99.90;;;;;;5069280;28;20164;-71
2023/03/26 12:34:38;;;;;;;2.72;1.35;;;8.30;99.90;;;;;;5068261;28;20101;-71
2023/03/26 12:37:06;;;;;;;4.13;1.30;;;8.30;99.90;;;;;;5068990;28;20120;-71
2023/03/26 12:39:37;;;;;;;4.88;0.95;;;8.20;99.90;;;;;;5068926;28;20048;-71
2023/03/26 12:42:06;;;;;;;6.82;0.98;;;8.20;99.90;;;;;;5083524;28;20063;-71
2023/03/26 12:44:51;;;;;;;4.50;0.52;;;8.20;99.90;;;;;;5088857;28;20485;-71
2023/03/26 12:47:26;;;;;;;6.30;1.02;;;8.20;99.90;;;;;;5089601;28;20521;-71
2023/03/26 12:49:52;;;;;;;1.13;0.43;;;8.20;99.90;;;;;;5054281;28;20115;-71
2023/03/26 12:52:41;;;;;;;2.95;0.75;;;8.20;99.90;;;;;;5102606;27;20040;-71
2023/03/26 12:55:20;;;;;;;3.65;0.60;;;8.20;99.90;;;;;;5069151;28;20476;-71
2023/03/26 12:58:28;;;;;;;2.10;0.93;;;8.30;99.90;;;;;;5087251;28;20093;-71
2023/03/26 13:01:16;;;;;;;3.47;0.40;;;8.30;99.80;;;;;;5077548;28;20040;-71
2023/03/26 13:03:56;;;;;;;1.63;0.63;;;8.20;97.50;;;;;;5104856;27;20090;-71
2023/03/26 13:06:37;;;;;;;3.47;0.82;;;8.30;99.90;;;;;;5087897;28;20052;-71
2023/03/26 13:09:30;;;;;;;5.32;0.85;;;8.30;98.90;;;;;;5071708;28;20089;-71
2023/03/26 13:12:14;;;;;;;2.53;1.00;;;8.30;98.00;;;;;;5087663;28;20039;-71
2023/03/26 13:15:11;;;;;;;4.38;0.90;;;8.30;99.20;;;;;;5088341;28;20440;-71
2023/03/26 13:18:08;;;;;;;4.38;0.73;;;8.40;99.70;;;;;;5083036;28;20137;-71
2023/03/26 13:20:59;;;;;;;7.10;1.40;;;8.40;99.90;;;;;;5053075;28;20037;-71
2023/03/26 13:23:38;;;;;;;1.00;0.45;;;8.40;97.30;;;;;;5045691;28;20182;-71
2023/03/26 13:26:19;;;;;;;3.53;0.70;;;8.40;99.90;;;;;;5072544;28;20036;-71
2023/03/26 13:29:09;;;;;;;2.05;0.52;;;8.40;99.50;;;;;;5088623;28;20048;-71
2023/03/26 13:31:52;;;;;;;5.38;1.00;;;8.40;99.90;;;;;;5071821;28;20036;-71
2023/03/26 13:34:36;;;;;;;1.38;0.55;;;8.50;99.90;;;;;;5066261;28;20542;-70
2023/03/26 13:37:33;;;;;;;1.33;0.32;;;8.50;99.90;;;;;;5081633;28;20051;-72